Time;durP1;ratioP1;P1;durP2;ratioP2;P2;SDS_P1;SDS_P2;PMS_P1;PMS_P2;Temp;Humidity;BMP_temperature;BMP_pressure;BME280_temperature;BME280_humidity;BME280_pressure;Samples;Min_cycle;Max_cycle;Signal;HPM_P1;HPM_P2
2022/05/09 00:02:06;;;;;;;7.25;2.37;;;11.20;54.20;;;;;;2372904;56;21039;-76
2022/05/09 00:04:33;;;;;;;6.82;2.90;;;11.20;54.60;;;;;;2626440;52;21038;-76
2022/05/09 00:07:01;;;;;;;5.12;2.37;;;11.10;54.60;;;;;;2373758;56;21060;-74
2022/05/09 00:09:28;;;;;;;6.47;2.33;;;11.10;54.90;;;;;;2373203;56;21121;-76
2022/05/09 00:11:55;;;;;;;6.80;2.72;;;11.10;55.00;;;;;;2374255;56;21043;-75
2022/05/09 00:14:22;;;;;;;8.05;2.45;;;11.10;55.30;;;;;;2374096;56;21082;-76
2022/05/09 00:16:51;;;;;;;6.78;2.65;;;11.00;55.10;;;;;;2625573;52;21039;-76
2022/05/09 00:19:21;;;;;;;6.80;2.53;;;11.00;55.20;;;;;;2373376;56;21094;-76
2022/05/09 00:21:50;;;;;;;3.62;2.17;;;11.00;55.20;;;;;;2374352;56;21042;-75
2022/05/09 00:24:18;;;;;;;6.25;2.42;;;11.00;55.30;;;;;;2626613;52;21015;-75
2022/05/09 00:26:46;;;;;;;8.77;2.90;;;11.00;55.30;;;;;;2372944;56;21035;-76
2022/05/09 00:29:14;;;;;;;5.82;2.33;;;10.90;55.60;;;;;;2374083;56;21047;-77
2022/05/09 00:31:43;;;;;;;4.12;2.25;;;10.90;55.70;;;;;;2625559;52;21371;-76
2022/05/09 00:34:11;;;;;;;5.90;2.45;;;10.90;55.80;;;;;;2372754;56;21110;-76
2022/05/09 00:36:39;;;;;;;5.55;2.65;;;10.90;55.90;;;;;;2372379;56;21122;-75
2022/05/09 00:39:07;;;;;;;4.57;2.00;;;10.90;55.90;;;;;;2626649;52;21067;-76
2022/05/09 00:41:34;;;;;;;8.15;2.60;;;10.80;56.00;;;;;;2373682;56;21054;-77
2022/05/09 00:44:13;;;;;;;7.68;2.78;;;10.80;56.00;;;;;;2627051;52;21102;-76
2022/05/09 00:46:45;;;;;;;5.43;2.40;;;10.80;56.00;;;;;;2372551;56;21353;-76
2022/05/09 00:49:18;;;;;;;4.82;2.10;;;10.80;56.20;;;;;;2372822;56;21065;-75
2022/05/09 00:51:51;;;;;;;7.60;2.58;;;10.70;56.40;;;;;;2374068;56;21027;-77
2022/05/09 00:54:18;;;;;;;6.82;2.67;;;10.70;56.50;;;;;;2373234;56;21193;-76
2022/05/09 00:56:51;;;;;;;6.72;2.33;;;10.70;56.50;;;;;;2373285;56;21177;-74
2022/05/09 00:59:20;;;;;;;4.65;2.30;;;10.60;56.40;;;;;;2625884;52;21118;-76
2022/05/09 01:01:48;;;;;;;9.75;2.10;;;10.60;56.30;;;;;;2625965;52;21043;-75
2022/05/09 01:04:19;;;;;;;7.18;2.33;;;10.60;56.20;;;;;;2372049;56;21565;-76
2022/05/09 01:06:47;;;;;;;4.85;2.12;;;10.50;56.30;;;;;;2371457;56;21106;-76
2022/05/09 01:09:14;;;;;;;14.18;2.97;;;10.50;56.50;;;;;;2372715;56;21038;-76
2022/05/09 01:11:43;;;;;;;5.00;2.40;;;10.50;56.80;;;;;;2372576;56;21490;-76
2022/05/09 01:14:31;;;;;;;5.47;2.33;;;10.50;56.90;;;;;;2372766;56;21126;-74
2022/05/09 01:16:59;;;;;;;10.40;2.60;;;10.40;57.00;;;;;;2373538;56;21070;-76
2022/05/09 01:19:30;;;;;;;8.55;2.22;;;10.40;57.10;;;;;;2374028;56;21098;-76
2022/05/09 01:21:59;;;;;;;7.68;2.50;;;10.40;57.30;;;;;;2372924;56;21035;-74
2022/05/09 01:24:28;;;;;;;5.47;2.22;;;10.30;57.40;;;;;;2626335;52;21098;-77
2022/05/09 01:26:56;;;;;;;4.65;2.05;;;10.30;57.40;;;;;;2372975;56;21062;-76
2022/05/09 01:29:36;;;;;;;5.40;2.25;;;10.30;57.40;;;;;;2627025;52;21031;-76
2022/05/09 01:32:08;;;;;;;7.30;2.78;;;10.20;57.40;;;;;;2372939;56;21055;-74
2022/05/09 01:34:40;;;;;;;5.00;2.33;;;10.20;57.50;;;;;;2627080;52;21055;-75
2022/05/09 01:37:09;;;;;;;7.53;2.55;;;10.20;57.70;;;;;;2371944;56;21035;-75
2022/05/09 01:39:37;;;;;;;7.43;2.85;;;10.10;57.90;;;;;;2371729;56;21757;-76
2022/05/09 01:42:06;;;;;;;7.72;2.45;;;10.10;58.10;;;;;;2372672;56;21035;-76
2022/05/09 01:44:33;;;;;;;5.25;2.50;;;10.10;57.90;;;;;;2372830;56;21047;-76
2022/05/09 01:49:47;;;;;;;6.60;2.60;;;10.10;57.80;;;;;;2373591;56;21030;-73
2022/05/09 01:52:15;;;;;;;6.90;2.47;;;10.10;57.80;;;;;;2373103;56;21549;-76
2022/05/09 01:54:43;;;;;;;6.62;2.47;;;10.00;58.10;;;;;;2373510;56;21043;-75
2022/05/09 01:57:11;;;;;;;8.10;3.22;;;10.00;58.50;;;;;;2624485;52;21099;-75
2022/05/09 01:59:38;;;;;;;5.60;2.78;;;9.90;58.40;;;;;;2373013;56;21125;-75
2022/05/09 02:02:10;;;;;;;6.75;2.65;;;9.90;58.40;;;;;;2626224;52;21106;-77
2022/05/09 02:04:40;;;;;;;10.13;3.10;;;9.80;58.30;;;;;;2626505;52;21047;-76
2022/05/09 02:07:09;;;;;;;5.35;2.60;;;9.90;58.50;;;;;;2372914;56;21110;-76
2022/05/09 02:09:39;;;;;;;7.00;2.40;;;9.80;58.50;;;;;;2626903;52;21114;-75
2022/05/09 02:12:08;;;;;;;7.18;2.50;;;9.80;58.70;;;;;;2373452;56;21075;-76
2022/05/09 02:14:35;;;;;;;6.30;2.33;;;9.80;58.70;;;;;;2373194;56;21094;-76
2022/05/09 02:17:03;;;;;;;6.68;2.85;;;9.80;58.70;;;;;;2373377;56;21094;-75
2022/05/09 02:19:31;;;;;;;7.95;2.17;;;9.80;59.30;;;;;;2372860;56;21133;-75
2022/05/09 02:22:00;;;;;;;10.02;2.80;;;9.70;58.50;;;;;;2372957;56;21043;-76
2022/05/09 02:24:27;;;;;;;4.78;2.47;;;9.70;58.60;;;;;;2373061;56;21055;-74
2022/05/09 02:26:55;;;;;;;6.75;2.72;;;9.70;59.30;;;;;;2372728;56;21047;-76
2022/05/09 02:29:22;;;;;;;4.80;2.28;;;9.70;58.60;;;;;;2373750;56;21597;-76
2022/05/09 02:31:50;;;;;;;6.25;2.40;;;9.70;58.70;;;;;;2625783;52;21063;-75
2022/05/09 02:34:17;;;;;;;6.78;3.22;;;9.70;58.80;;;;;;2373705;56;21039;-76
2022/05/09 02:36:44;;;;;;;5.20;2.20;;;9.60;59.00;;;;;;2371533;56;21143;-76
2022/05/09 02:39:12;;;;;;;6.82;2.53;;;9.70;59.20;;;;;;2372754;56;21067;-74
2022/05/09 02:41:39;;;;;;;6.80;2.80;;;9.60;59.20;;;;;;2372400;56;21546;-73
2022/05/09 02:44:07;;;;;;;7.85;2.22;;;9.60;59.30;;;;;;2625907;52;21178;-76
2022/05/09 02:46:35;;;;;;;10.32;3.17;;;9.60;59.50;;;;;;2625495;52;21031;-74
2022/05/09 02:49:02;;;;;;;4.82;2.85;;;9.50;59.60;;;;;;2626784;52;21086;-76
2022/05/09 02:51:30;;;;;;;9.98;2.92;;;9.50;59.80;;;;;;2373194;56;21043;-76
2022/05/09 02:53:58;;;;;;;7.10;2.80;;;9.50;59.80;;;;;;2372017;56;21042;-75
2022/05/09 02:56:26;;;;;;;9.50;3.00;;;9.50;59.90;;;;;;2372839;56;21063;-76
2022/05/09 02:58:53;;;;;;;9.80;2.95;;;9.40;59.90;;;;;;2625205;52;21091;-75
2022/05/09 03:01:21;;;;;;;5.72;2.45;;;9.50;59.90;;;;;;2627359;52;21031;-76
2022/05/09 03:06:33;;;;;;;6.90;2.35;;;9.40;59.90;;;;;;2371614;56;21094;-74
2022/05/09 03:09:01;;;;;;;5.12;2.60;;;9.40;59.90;;;;;;2373280;56;21046;-76
2022/05/09 03:11:28;;;;;;;8.82;2.58;;;9.30;60.00;;;;;;2372701;56;21050;-75
2022/05/09 03:13:55;;;;;;;6.93;2.47;;;9.30;60.20;;;;;;2372887;56;21597;-76
2022/05/09 03:16:22;;;;;;;5.62;2.87;;;9.30;60.50;;;;;;2372031;56;21039;-75
2022/05/09 03:18:51;;;;;;;10.45;3.00;;;9.30;60.60;;;;;;2373958;56;21074;-76
2022/05/09 03:21:19;;;;;;;4.50;2.50;;;9.20;60.60;;;;;;2372854;56;21201;-75
2022/05/09 03:23:46;;;;;;;6.72;3.15;;;9.20;60.40;;;;;;2373046;56;21016;-76
2022/05/09 03:26:13;;;;;;;8.68;3.22;;;9.20;60.60;;;;;;2372421;56;21123;-72
2022/05/09 03:28:41;;;;;;;6.12;2.65;;;9.10;60.70;;;;;;2372393;56;21820;-76
2022/05/09 03:31:09;;;;;;;8.05;2.90;;;9.20;60.90;;;;;;2374045;56;21094;-76
2022/05/09 03:33:36;;;;;;;13.93;3.15;;;9.10;60.90;;;;;;2372793;56;21102;-76
2022/05/09 03:36:04;;;;;;;6.87;2.80;;;9.10;60.90;;;;;;2625906;52;21044;-75
2022/05/09 03:38:31;;;;;;;8.05;2.80;;;9.10;60.90;;;;;;2373162;56;21130;-77
2022/05/09 03:40:59;;;;;;;5.35;2.80;;;9.10;60.80;;;;;;2373566;56;21103;-76
2022/05/09 03:43:27;;;;;;;7.78;2.70;;;9.10;60.90;;;;;;2626580;52;21095;-75
2022/05/09 03:45:55;;;;;;;5.87;2.70;;;9.10;60.90;;;;;;2623244;52;21616;-74
2022/05/09 03:48:22;;;;;;;6.93;2.33;;;9.00;60.90;;;;;;2372572;56;21954;-75
2022/05/09 03:50:49;;;;;;;4.55;2.45;;;9.10;61.30;;;;;;2371561;56;21048;-76
2022/05/09 03:53:16;;;;;;;5.55;2.42;;;9.10;61.60;;;;;;2373507;56;21652;-74
2022/05/09 03:55:44;;;;;;;8.18;2.90;;;9.00;61.50;;;;;;2626059;52;21086;-76
2022/05/09 03:58:11;;;;;;;9.43;2.87;;;9.10;61.70;;;;;;2374057;56;21533;-76
2022/05/09 04:00:38;;;;;;;6.87;2.62;;;9.10;61.60;;;;;;2373311;56;21380;-76
2022/05/09 04:03:06;;;;;;;4.57;2.75;;;9.10;61.60;;;;;;2373002;56;21106;-76
2022/05/09 04:05:35;;;;;;;7.12;2.60;;;9.10;61.70;;;;;;2373083;56;21047;-75
2022/05/09 04:08:06;;;;;;;5.68;3.30;;;9.10;61.80;;;;;;2626366;52;21050;-76
2022/05/09 04:10:37;;;;;;;5.95;2.42;;;9.10;61.70;;;;;;2627073;52;21078;-73
2022/05/09 04:13:04;;;;;;;5.45;2.20;;;9.10;61.70;;;;;;2373719;56;21157;-76
2022/05/09 04:18:18;;;;;;;5.37;2.42;;;9.10;62.20;;;;;;2372486;56;21588;-77
2022/05/09 04:20:47;;;;;;;6.35;2.47;;;9.10;62.20;;;;;;2373890;56;21047;-76
2022/05/09 04:23:15;;;;;;;6.82;2.90;;;9.10;62.30;;;;;;2372072;56;21047;-74
2022/05/09 04:25:43;;;;;;;6.57;2.58;;;9.10;62.40;;;;;;2373404;56;21055;-75
2022/05/09 04:28:10;;;;;;;6.70;3.17;;;9.10;62.50;;;;;;2373732;56;21063;-75
2022/05/09 04:30:39;;;;;;;8.18;3.08;;;9.00;62.40;;;;;;2373799;56;21047;-75
2022/05/09 04:33:07;;;;;;;9.73;3.58;;;9.00;62.50;;;;;;2373685;56;21087;-75
2022/05/09 04:35:36;;;;;;;7.18;2.95;;;9.00;62.80;;;;;;2373427;56;21090;-76
2022/05/09 04:38:05;;;;;;;6.35;2.50;;;9.00;63.30;;;;;;2372430;56;21110;-76
2022/05/09 04:40:35;;;;;;;7.07;2.87;;;9.00;63.90;;;;;;2624390;52;21190;-76
2022/05/09 04:43:03;;;;;;;5.68;2.50;;;9.00;64.20;;;;;;2626870;52;21054;-76
2022/05/09 04:45:40;;;;;;;5.75;2.53;;;9.00;64.30;;;;;;2451503;53;69984;-79
2022/05/09 04:48:13;;;;;;;3.12;2.33;;;9.00;64.40;;;;;;2314952;58;21072;-79
2022/05/09 04:50:46;;;;;;;3.92;2.33;;;9.10;64.60;;;;;;2314526;58;21651;-79
2022/05/09 04:53:24;;;;;;;10.23;3.12;;;9.10;64.80;;;;;;2315522;58;21103;-79
2022/05/09 04:55:59;;;;;;;7.55;2.87;;;9.30;65.80;;;;;;2288244;59;21046;-79
2022/05/09 04:58:40;;;;;;;;;;;;;;;;;;;;;
2022/05/09 05:01:09;;;;;;;7.32;2.50;;;9.30;65.50;;;;;;2288098;59;21070;-79
2022/05/09 05:03:37;;;;;;;8.38;3.20;;;9.30;64.70;;;;;;2288390;59;21122;-81
2022/05/09 05:06:09;;;;;;;6.93;2.92;;;9.40;64.80;;;;;;2522099;55;21741;-79
2022/05/09 05:08:38;;;;;;;10.25;3.15;;;9.40;65.00;;;;;;2288126;59;21209;-79
2022/05/09 05:11:07;;;;;;;6.07;3.12;;;9.40;65.10;;;;;;2288638;59;21066;-79
2022/05/09 05:13:43;;;;;;;6.15;2.75;;;9.50;65.50;;;;;;2287466;59;21201;-79
2022/05/09 05:16:13;;;;;;;7.80;3.40;;;9.50;65.90;;;;;;2521798;55;21091;-79
2022/05/09 05:18:41;;;;;;;6.70;3.08;;;9.60;65.90;;;;;;2288007;59;21535;-78
2022/05/09 05:21:10;;;;;;;9.32;3.10;;;9.70;65.80;;;;;;2289424;59;21114;-74
2022/05/09 05:23:38;;;;;;;10.20;3.33;;;9.80;66.00;;;;;;2521447;55;21123;-74
2022/05/09 05:26:05;;;;;;;7.22;3.62;;;9.80;66.20;;;;;;2286867;59;21342;-78
2022/05/09 05:28:33;;;;;;;8.52;3.37;;;9.80;66.50;;;;;;2288186;59;21071;-79
2022/05/09 05:31:12;;;;;;;7.93;3.58;;;9.90;66.90;;;;;;2288056;59;21046;-77
2022/05/09 05:33:39;;;;;;;11.27;3.83;;;9.90;67.20;;;;;;2288270;59;21043;-77
2022/05/09 05:36:07;;;;;;;5.65;2.35;;;10.00;67.30;;;;;;2522202;55;21075;-80
2022/05/09 05:38:34;;;;;;;9.32;2.55;;;10.10;67.40;;;;;;2287452;59;21103;-78
2022/05/09 05:41:02;;;;;;;7.75;2.75;;;10.10;67.30;;;;;;2522607;55;21063;-79
2022/05/09 05:43:29;;;;;;;10.57;2.70;;;10.20;67.40;;;;;;2522425;55;21138;-79
2022/05/09 05:45:57;;;;;;;6.25;2.67;;;10.20;67.40;;;;;;2287972;59;21050;-79
2022/05/09 05:48:24;;;;;;;13.02;2.83;;;10.30;67.00;;;;;;2288153;59;21622;-79
2022/05/09 05:50:52;;;;;;;9.07;2.30;;;10.30;66.60;;;;;;2522729;55;21634;-79
2022/05/09 05:53:20;;;;;;;11.60;3.15;;;10.40;66.30;;;;;;2287941;59;21058;-78
2022/05/09 05:55:47;;;;;;;9.15;2.25;;;10.40;65.80;;;;;;2522222;55;21627;-78
2022/05/09 05:58:14;;;;;;;5.93;2.17;;;10.50;65.80;;;;;;2288020;59;21138;-80
2022/05/09 06:00:41;;;;;;;9.88;2.90;;;10.60;65.50;;;;;;2522263;55;21071;-78
2022/05/09 06:03:08;;;;;;;5.87;2.42;;;10.70;64.80;;;;;;2522150;55;21078;-81
2022/05/09 06:05:36;;;;;;;7.37;2.55;;;10.70;64.80;;;;;;2287882;59;21058;-79
2022/05/09 06:08:04;;;;;;;12.88;2.70;;;10.80;64.70;;;;;;2288501;59;21095;-78
2022/05/09 06:10:31;;;;;;;13.85;2.90;;;10.80;64.80;;;;;;2288047;59;21131;-79
2022/05/09 06:13:02;;;;;;;6.60;2.10;;;10.90;64.50;;;;;;2288321;59;21137;-79
2022/05/09 06:15:32;;;;;;;7.37;1.83;;;11.00;64.40;;;;;;2523473;55;21051;-78
2022/05/09 06:18:00;;;;;;;5.50;2.00;;;11.00;64.20;;;;;;2523959;55;21083;-79
2022/05/09 06:20:31;;;;;;;8.35;2.17;;;11.10;64.00;;;;;;2523637;55;21039;-79
2022/05/09 06:22:59;;;;;;;10.55;2.45;;;11.10;63.90;;;;;;2522873;55;21062;-80
2022/05/09 06:25:28;;;;;;;8.10;2.35;;;11.20;63.70;;;;;;2523874;55;21627;-80
2022/05/09 06:27:58;;;;;;;8.40;2.17;;;11.30;63.40;;;;;;2288958;59;21537;-81
2022/05/09 06:30:26;;;;;;;6.80;2.42;;;11.30;63.20;;;;;;2289963;59;21091;-81
2022/05/09 06:32:53;;;;;;;7.15;2.20;;;11.30;63.00;;;;;;2524416;55;21099;-81
2022/05/09 06:35:23;;;;;;;13.38;2.05;;;11.40;62.90;;;;;;2290228;58;21146;-80
2022/05/09 06:37:55;;;;;;;11.32;2.65;;;11.50;62.90;;;;;;2524340;55;21115;-81
2022/05/09 06:40:23;;;;;;;9.88;3.08;;;11.50;62.60;;;;;;2524573;55;21146;-81
2022/05/09 06:45:27;;;;;;;7.53;2.53;;;11.60;62.60;;;;;;2355527;57;22535;-76
2022/05/09 06:47:56;;;;;;;7.37;3.40;;;11.70;62.60;;;;;;2367662;56;21063;-77
2022/05/09 06:50:25;;;;;;;8.82;2.60;;;11.80;61.70;;;;;;2375483;56;21051;-76
2022/05/09 06:52:52;;;;;;;9.27;2.70;;;11.80;61.90;;;;;;2375658;56;21122;-76
2022/05/09 06:55:22;;;;;;;8.27;2.35;;;11.90;61.50;;;;;;2375165;56;21105;-76
2022/05/09 06:57:49;;;;;;;7.60;2.67;;;12.00;62.40;;;;;;2628882;52;21079;-77
2022/05/09 07:00:20;;;;;;;6.47;2.95;;;12.00;61.40;;;;;;2374621;56;21039;-77
2022/05/09 07:02:47;;;;;;;11.75;2.80;;;12.00;61.40;;;;;;2375122;56;21063;-77
2022/05/09 07:05:16;;;;;;;8.63;3.10;;;12.10;61.30;;;;;;2628938;52;21111;-78
2022/05/09 07:07:44;;;;;;;10.63;2.80;;;12.10;61.60;;;;;;2375390;56;21024;-77
2022/05/09 07:10:13;;;;;;;8.50;2.83;;;12.20;61.70;;;;;;2375379;56;21541;-77
2022/05/09 07:12:43;;;;;;;12.10;3.15;;;12.30;61.80;;;;;;2375284;56;21042;-76
2022/05/09 07:15:12;;;;;;;8.68;3.28;;;12.40;61.90;;;;;;2375263;56;21087;-77
2022/05/09 07:17:39;;;;;;;7.00;2.28;;;12.40;62.00;;;;;;2375228;56;21050;-76
2022/05/09 07:20:09;;;;;;;7.32;3.15;;;12.50;62.20;;;;;;2375411;56;21588;-77
2022/05/09 07:22:37;;;;;;;9.43;2.58;;;12.60;61.90;;;;;;2375273;56;21521;-76
2022/05/09 07:25:05;;;;;;;8.82;2.78;;;12.70;61.60;;;;;;2375328;56;21070;-76
2022/05/09 07:27:32;;;;;;;10.93;3.90;;;12.80;61.50;;;;;;2374691;56;21185;-76
2022/05/09 07:30:00;;;;;;;11.80;3.28;;;12.90;61.10;;;;;;2629053;52;21684;-76
2022/05/09 07:32:27;;;;;;;10.38;2.90;;;12.90;60.80;;;;;;2629051;52;21023;-76
2022/05/09 07:34:54;;;;;;;8.23;2.87;;;13.00;60.50;;;;;;2375358;56;21125;-76
2022/05/09 07:37:21;;;;;;;6.93;2.70;;;13.10;60.50;;;;;;2374987;56;21094;-74
2022/05/09 07:39:49;;;;;;;10.05;2.80;;;13.10;60.40;;;;;;2628618;52;21573;-76
2022/05/09 07:42:16;;;;;;;9.95;2.55;;;13.20;60.80;;;;;;2375306;56;21027;-76
2022/05/09 07:44:43;;;;;;;7.45;2.78;;;13.20;59.90;;;;;;2375382;56;21102;-77
2022/05/09 07:47:12;;;;;;;8.00;2.35;;;13.30;59.10;;;;;;2374891;56;21035;-75
2022/05/09 07:49:39;;;;;;;6.82;2.15;;;13.30;59.20;;;;;;2375436;56;21106;-75
2022/05/09 07:52:08;;;;;;;11.12;3.62;;;13.30;59.10;;;;;;2375397;56;21113;-76
2022/05/09 07:54:36;;;;;;;6.78;2.30;;;13.40;58.90;;;;;;2629104;52;21058;-76
2022/05/09 07:57:03;;;;;;;6.32;2.05;;;13.40;58.30;;;;;;2373532;56;21050;-76
2022/05/09 07:59:31;;;;;;;9.38;2.58;;;13.50;58.30;;;;;;2374389;56;21141;-76
2022/05/09 08:01:58;;;;;;;8.13;2.67;;;13.50;58.10;;;;;;2374248;56;21120;-74
2022/05/09 08:04:25;;;;;;;7.68;2.58;;;13.60;58.10;;;;;;2374157;56;21043;-75
2022/05/09 08:06:53;;;;;;;5.78;2.10;;;13.60;57.80;;;;;;2373965;56;21046;-75
2022/05/09 08:09:20;;;;;;;7.75;2.72;;;13.70;57.30;;;;;;2374165;56;21047;-75
2022/05/09 08:11:47;;;;;;;12.35;2.83;;;13.70;56.80;;;;;;2374549;56;21058;-75
2022/05/09 08:14:15;;;;;;;10.60;2.67;;;13.80;56.80;;;;;;2374378;56;21090;-73
2022/05/09 08:16:43;;;;;;;5.03;2.00;;;13.80;56.80;;;;;;2626308;52;21039;-75
2022/05/09 08:19:11;;;;;;;6.87;2.00;;;13.90;57.00;;;;;;2374108;56;21055;-73
2022/05/09 08:21:39;;;;;;;7.78;2.30;;;13.90;57.00;;;;;;2374292;56;21042;-74
2022/05/09 08:24:08;;;;;;;8.57;2.37;;;14.00;56.50;;;;;;2374274;56;21027;-75
2022/05/09 08:26:36;;;;;;;4.47;1.80;;;14.10;56.50;;;;;;2627218;52;21047;-74
2022/05/09 08:29:04;;;;;;;6.93;2.10;;;14.10;56.00;;;;;;2374249;56;21103;-75
2022/05/09 08:31:32;;;;;;;5.18;1.77;;;14.20;54.10;;;;;;2374458;56;21051;-74
2022/05/09 08:33:59;;;;;;;4.35;1.85;;;14.20;52.30;;;;;;2373778;56;21596;-75
2022/05/09 08:39:13;;;;;;;6.47;2.28;;;14.20;51.70;;;;;;2373512;56;21015;-76
2022/05/09 08:41:57;;;;;;;4.45;1.80;;;14.20;50.30;;;;;;2372928;56;21126;-75
2022/05/09 08:44:40;;;;;;;;;;;14.30;51.00;;;;;;2376904;56;21062;-75
2022/05/09 08:47:27;;;;;;;5.87;1.80;;;14.40;50.20;;;;;;2626579;52;20112;-75
2022/05/09 08:50:09;;;;;;;11.65;2.65;;;14.30;50.50;;;;;;2374390;56;21176;-74
2022/05/09 08:52:42;;;;;;;5.93;2.37;;;14.40;50.80;;;;;;2627073;52;21209;-73
2022/05/09 08:55:10;;;;;;;5.30;2.10;;;14.40;51.10;;;;;;2371875;56;21095;-75
2022/05/09 08:57:42;;;;;;;8.32;2.37;;;14.40;51.60;;;;;;2372443;56;21062;-74
2022/05/09 09:00:13;;;;;;;7.75;2.12;;;14.50;52.80;;;;;;2372800;56;21059;-75
2022/05/09 09:02:47;;;;;;;6.15;2.03;;;14.60;52.10;;;;;;2372270;56;21557;-75
2022/05/09 09:05:21;;;;;;;7.53;2.78;;;14.60;52.10;;;;;;2372631;56;21051;-74
2022/05/09 09:08:09;;;;;;;7.50;2.40;;;14.70;52.30;;;;;;2371507;56;21109;-74
2022/05/09 09:10:44;;;;;;;6.72;2.15;;;14.80;52.50;;;;;;2372582;56;21102;-75
2022/05/09 09:13:29;;;;;;;6.22;2.08;;;14.80;52.40;;;;;;2626177;52;21618;-76
2022/05/09 09:16:15;;;;;;;11.23;2.25;;;14.90;52.60;;;;;;2626198;52;21104;-76
2022/05/09 09:18:57;;;;;;;5.22;1.90;;;14.90;52.40;;;;;;2373204;56;21058;-73
2022/05/09 09:21:34;;;;;;;8.48;2.45;;;15.00;52.20;;;;;;2373542;56;21019;-76
2022/05/09 09:24:22;;;;;;;16.10;2.90;;;15.10;52.60;;;;;;2626039;52;21043;-75
2022/05/09 09:29:39;;;;;;;6.15;2.03;;;15.20;52.90;;;;;;2353984;57;22564;-75
2022/05/09 09:32:10;;;;;;;4.35;1.85;;;15.20;52.70;;;;;;2346922;57;21037;-76
2022/05/09 09:34:44;;;;;;;2.97;2.00;;;15.30;52.40;;;;;;2346644;57;21466;-77
2022/05/09 09:37:18;;;;;;;10.20;2.12;;;15.30;51.10;;;;;;2358568;56;21047;-75
2022/05/09 09:39:46;;;;;;;6.57;2.15;;;15.40;51.70;;;;;;2374655;56;21046;-75
2022/05/09 09:42:13;;;;;;;6.82;2.40;;;15.40;52.00;;;;;;2374535;56;21058;-75
2022/05/09 09:44:45;;;;;;;3.83;2.00;;;15.50;52.20;;;;;;2374322;56;21043;-73
2022/05/09 09:47:22;;;;;;;7.15;2.80;;;15.50;51.90;;;;;;2374193;56;21530;-74
2022/05/09 09:50:10;;;;;;;5.32;2.20;;;15.60;51.80;;;;;;2627789;52;21118;-75
2022/05/09 09:52:43;;;;;;;11.25;2.42;;;15.60;51.00;;;;;;2374291;56;21110;-75
2022/05/09 09:55:18;;;;;;;;;;;15.70;50.10;;;;;;2631886;52;21047;-72
2022/05/09 09:57:46;;;;;;;5.97;2.30;;;15.80;50.80;;;;;;2374481;56;20081;-75
2022/05/09 10:00:19;;;;;;;8.65;2.30;;;15.90;51.70;;;;;;2374665;56;21043;-75
2022/05/09 10:02:47;;;;;;;7.22;2.42;;;15.90;51.90;;;;;;2374585;56;21329;-75
2022/05/09 10:05:17;;;;;;;8.30;2.30;;;16.00;52.00;;;;;;2373474;56;21028;-75
2022/05/09 10:07:45;;;;;;;8.52;2.28;;;16.00;51.70;;;;;;2374145;56;21090;-74
2022/05/09 10:10:14;;;;;;;7.62;2.40;;;16.10;50.60;;;;;;2374368;56;21027;-75
2022/05/09 10:12:46;;;;;;;8.55;2.28;;;16.20;50.50;;;;;;2628027;52;21063;-74
2022/05/09 10:15:27;;;;;;;8.10;2.40;;;16.30;50.90;;;;;;2374631;56;22096;-75
2022/05/09 10:17:55;;;;;;;9.25;2.05;;;16.40;50.80;;;;;;2374335;56;21059;-75
2022/05/09 10:20:37;;;;;;;7.12;2.42;;;16.40;49.00;;;;;;2628151;52;21049;-75
2022/05/09 10:26:04;;;;;;;5.90;2.17;;;16.60;49.00;;;;;;2373858;56;21512;-72
2022/05/09 10:28:36;;;;;;;4.60;1.85;;;16.70;49.10;;;;;;2374220;56;21122;-75
2022/05/09 10:31:14;;;;;;;5.57;1.80;;;16.80;49.50;;;;;;2375426;56;21062;-75
2022/05/09 10:33:46;;;;;;;8.18;2.40;;;16.80;49.10;;;;;;2374840;56;21401;-73
2022/05/09 10:36:20;;;;;;;9.18;2.45;;;16.90;48.80;;;;;;2374765;56;21047;-72
2022/05/09 10:38:52;;;;;;;4.80;1.75;;;17.00;48.70;;;;;;2374650;56;21090;-75
2022/05/09 10:41:27;;;;;;;6.20;2.00;;;17.10;48.20;;;;;;2374418;56;21114;-75
2022/05/09 10:44:00;;;;;;;4.87;2.15;;;17.20;47.40;;;;;;2373216;56;21043;-74
2022/05/09 10:46:40;;;;;;;4.18;1.87;;;17.20;47.30;;;;;;2505011;54;21046;-75
2022/05/09 10:49:16;;;;;;;5.78;1.58;;;17.30;47.50;;;;;;2299508;58;21078;-75
2022/05/09 10:51:58;;;;;;;6.95;2.12;;;17.40;46.60;;;;;;2300808;58;21549;-76
2022/05/09 10:54:36;;;;;;;5.80;2.08;;;17.50;45.70;;;;;;2300271;58;21130;-74
2022/05/09 10:57:14;;;;;;;5.82;2.20;;;17.60;44.50;;;;;;2300155;58;21062;-75
2022/05/09 10:59:42;;;;;;;7.07;2.40;;;17.70;45.10;;;;;;2299545;58;21055;-74
2022/05/09 11:02:18;;;;;;;7.70;2.50;;;17.80;44.90;;;;;;2300790;58;21058;-76
2022/05/09 11:04:45;;;;;;;4.87;2.05;;;17.90;44.90;;;;;;2300361;58;21125;-74
2022/05/09 11:07:24;;;;;;;9.02;2.15;;;18.10;44.40;;;;;;2300215;58;21134;-74
2022/05/09 11:10:02;;;;;;;7.93;2.37;;;18.20;44.70;;;;;;2300634;58;21149;-74
2022/05/09 11:12:53;;;;;;;5.37;1.75;;;18.30;44.20;;;;;;2299943;58;21062;-73
2022/05/09 11:15:31;;;;;;;7.28;2.70;;;18.50;43.40;;;;;;2300334;58;21058;-75
2022/05/09 11:18:33;;;;;;;8.75;2.40;;;18.70;43.90;;;;;;2537061;54;21760;-75
2022/05/09 11:21:08;;;;;;;8.18;2.30;;;18.90;43.10;;;;;;2300323;58;21054;-74
2022/05/09 11:23:46;;;;;;;5.05;1.87;;;19.00;43.50;;;;;;2300890;58;21062;-76
2022/05/09 11:29:12;;;;;;;5.82;1.95;;;19.30;41.40;;;;;;2355023;57;22090;-75
2022/05/09 11:31:54;;;;;;;5.28;2.10;;;19.40;41.10;;;;;;2346506;57;21065;-75
2022/05/09 11:34:32;;;;;;;8.63;1.92;;;19.60;41.10;;;;;;2345690;57;21141;-76
2022/05/09 11:37:10;;;;;;;6.82;1.55;;;19.70;40.70;;;;;;2355702;56;21094;-75
2022/05/09 11:39:52;;;;;;;4.80;1.77;;;19.80;40.80;;;;;;2373924;56;21057;-76
2022/05/09 11:45:23;;;;;;;7.25;2.22;;;20.10;39.90;;;;;;2626479;52;20951;-74
2022/05/09 11:48:01;;;;;;;8.80;2.90;;;20.20;39.30;;;;;;2373386;56;21051;-75
2022/05/09 11:50:38;;;;;;;7.60;2.12;;;20.30;38.70;;;;;;2373583;56;21105;-74
2022/05/09 11:53:06;;;;;;;9.52;2.25;;;20.50;38.70;;;;;;2373295;56;21193;-76
2022/05/09 11:55:34;;;;;;;6.95;2.00;;;20.50;38.00;;;;;;2372045;56;21998;-74
2022/05/09 11:58:04;;;;;;;6.18;1.80;;;20.60;38.40;;;;;;2372868;56;21118;-75
2022/05/09 12:04:06;;;;;;;6.37;2.22;;;20.80;37.60;;;;;;2354916;57;22540;-76
2022/05/09 12:06:42;;;;;;;5.53;1.85;;;20.90;37.10;;;;;;2351198;56;21039;-75
2022/05/09 12:09:15;;;;;;;8.90;2.15;;;21.00;37.10;;;;;;2374365;56;21055;-75
2022/05/09 12:11:51;;;;;;;5.75;2.67;;;21.20;36.70;;;;;;2373799;56;21035;-75
2022/05/09 12:17:35;;;;;;;6.07;2.30;;;21.40;37.20;;;;;;2341378;57;22099;-75
2022/05/09 12:20:08;;;;;;;6.68;2.22;;;21.50;37.40;;;;;;2347088;57;21037;-75
2022/05/09 12:22:42;;;;;;;7.70;2.23;;;21.70;37.70;;;;;;2347231;57;21223;-73
2022/05/09 12:25:14;;;;;;;9.75;2.85;;;21.80;37.80;;;;;;2346790;57;21164;-75
2022/05/09 12:28:02;;;;;;;6.40;2.03;;;21.90;38.80;;;;;;2346942;57;21093;-75
2022/05/09 12:30:46;;;;;;;7.35;1.90;;;22.00;38.80;;;;;;2346710;57;21046;-75
2022/05/09 12:36:11;;;;;;;8.77;2.65;;;22.10;37.80;;;;;;2355234;57;22077;-75
2022/05/09 12:38:41;;;;;;;6.50;1.98;;;22.20;36.60;;;;;;2320428;58;21530;-75
2022/05/09 12:41:13;;;;;;;4.10;2.08;;;22.30;37.40;;;;;;2320207;58;21064;-74
2022/05/09 12:43:44;;;;;;;5.50;1.98;;;22.40;37.90;;;;;;2320505;58;21099;-75
2022/05/09 12:46:24;;;;;;;7.05;2.60;;;22.50;37.10;;;;;;2319761;58;21183;-73
2022/05/09 12:48:53;;;;;;;4.43;1.67;;;22.60;38.10;;;;;;2318970;58;21130;-74
2022/05/09 12:51:21;;;;;;;4.60;2.05;;;22.60;37.10;;;;;;2320388;58;21139;-75
2022/05/09 12:53:49;;;;;;;8.25;1.95;;;22.70;37.20;;;;;;2320079;58;21056;-75
2022/05/09 12:56:19;;;;;;;8.25;2.00;;;22.70;36.40;;;;;;2319978;58;21056;-74
2022/05/09 12:58:49;;;;;;;8.60;1.87;;;22.80;36.00;;;;;;2561785;54;21036;-75
2022/05/09 13:01:19;;;;;;;7.10;2.62;;;22.90;36.20;;;;;;2320143;58;21143;-74
2022/05/09 13:03:50;;;;;;;6.25;2.08;;;22.90;35.90;;;;;;2320146;58;21190;-75
2022/05/09 13:06:20;;;;;;;5.30;2.08;;;23.00;36.20;;;;;;2318363;58;21107;-76
2022/05/09 13:08:48;;;;;;;5.37;1.87;;;23.10;35.20;;;;;;2320362;58;21166;-75
2022/05/09 13:11:19;;;;;;;5.20;1.70;;;23.10;35.60;;;;;;2320369;58;21131;-75
2022/05/09 13:14:01;;;;;;;3.97;1.65;;;23.10;35.30;;;;;;2320356;58;21071;-75
2022/05/09 13:16:35;;;;;;;7.32;2.03;;;23.20;35.50;;;;;;2319936;58;21115;-75
2022/05/09 13:19:03;;;;;;;3.85;1.67;;;23.30;35.20;;;;;;2320486;58;21048;-76
2022/05/09 13:21:34;;;;;;;12.50;2.05;;;23.30;35.60;;;;;;2559879;54;21059;-75
2022/05/09 13:24:03;;;;;;;9.15;2.12;;;23.40;36.00;;;;;;2320365;58;21056;-73
2022/05/09 13:26:31;;;;;;;9.73;2.67;;;23.50;35.30;;;;;;2319695;58;21052;-76
2022/05/09 13:29:08;;;;;;;7.18;2.10;;;23.50;34.90;;;;;;2319996;58;21612;-75
2022/05/09 13:31:42;;;;;;;6.07;2.05;;;23.60;34.60;;;;;;2320219;58;21044;-74
2022/05/09 13:34:18;;;;;;;;;;;23.70;33.10;;;;;;2323687;58;21160;-76
2022/05/09 13:36:45;;;;;;;7.43;2.22;;;23.60;33.80;;;;;;2319823;58;20137;-75
2022/05/09 13:39:25;;;;;;;4.00;2.05;;;23.70;34.90;;;;;;2319253;58;21083;-73
2022/05/09 13:41:54;;;;;;;5.10;2.05;;;23.70;35.40;;;;;;2320245;58;21159;-73
2022/05/09 13:44:22;;;;;;;6.82;1.87;;;23.70;34.40;;;;;;2320245;58;21115;-75